createdAt,value
2023-02-22T00:00:42.750Z,8.93
2023-02-22T00:03:12.605Z,8.89
2023-02-22T00:05:45.090Z,8.82
2023-02-22T00:08:11.559Z,8.79
2023-02-22T00:10:38.476Z,8.75
2023-02-22T00:13:07.332Z,8.75
2023-02-22T00:15:34.338Z,8.73
2023-02-22T00:18:01.396Z,8.73
2023-02-22T00:20:28.602Z,8.75
2023-02-22T00:22:55.466Z,8.79
2023-02-22T00:25:25.667Z,8.77
2023-02-22T00:27:52.983Z,8.72
2023-02-22T00:30:26.948Z,8.75
2023-02-22T00:32:55.857Z,8.62
2023-02-22T00:35:25.046Z,8.59
2023-02-22T00:37:54.336Z,8.55
2023-02-22T00:40:30.575Z,8.46
2023-02-22T00:42:58.598Z,8.40
2023-02-22T00:45:27.329Z,8.43
2023-02-22T00:47:57.597Z,8.36
2023-02-22T00:50:26.776Z,8.37
2023-02-22T00:52:54.118Z,8.33
2023-02-22T00:55:24.315Z,8.25
2023-02-22T00:57:51.366Z,8.25
2023-02-22T01:00:21.208Z,8.24
2023-02-22T01:02:51.119Z,8.21
2023-02-22T01:05:21.159Z,8.18
2023-02-22T01:07:49.639Z,8.12
2023-02-22T01:10:19.424Z,8.09
2023-02-22T01:12:47.816Z,8.09
2023-02-22T01:15:16.271Z,8.13
2023-02-22T01:17:43.813Z,8.21
2023-02-22T01:20:14.261Z,8.27
2023-02-22T01:22:42.183Z,8.29
2023-02-22T01:25:11.260Z,8.30
2023-02-22T01:27:38.519Z,8.36
2023-02-22T01:30:09.087Z,8.43
2023-02-22T01:32:36.342Z,8.43
2023-02-22T01:35:05.016Z,8.47
2023-02-22T01:37:32.377Z,8.47
2023-02-22T01:39:58.977Z,8.51
2023-02-22T01:42:26.438Z,8.46
2023-02-22T01:45:30.177Z,8.55
2023-02-22T01:48:09.461Z,8.51
2023-02-22T01:50:44.339Z,8.55
2023-02-22T01:53:14.165Z,8.59
2023-02-22T01:55:40.857Z,8.63
2023-02-22T01:58:08.799Z,8.63
2023-02-22T02:00:35.443Z,8.65
2023-02-22T02:03:08.675Z,8.65
2023-02-22T02:05:35.907Z,8.65
2023-02-22T02:08:14.504Z,8.57
2023-02-22T02:10:41.919Z,8.62
2023-02-22T02:13:10.098Z,8.71
2023-02-22T02:15:37.165Z,8.68
2023-02-22T02:18:07.656Z,8.65
2023-02-22T02:21:04.725Z,8.73
2023-02-22T02:23:56.280Z,8.71
2023-02-22T02:26:53.700Z,8.74
2023-02-22T02:29:55.452Z,8.75
2023-02-22T02:32:35.718Z,8.73
2023-02-22T02:35:07.601Z,8.71
2023-02-22T02:38:06.229Z,8.70
2023-02-22T02:40:58.621Z,8.77
2023-02-22T02:43:35.277Z,8.76
2023-02-22T02:46:06.264Z,8.81
2023-02-22T02:48:35.453Z,8.78
2023-02-22T02:51:05.669Z,8.79
2023-02-22T02:53:35.210Z,8.84
2023-02-22T02:56:02.370Z,8.82
2023-02-22T02:58:29.616Z,8.80
2023-02-22T03:01:00.201Z,8.84
2023-02-22T03:04:12.089Z,8.78
2023-02-22T03:06:53.614Z,8.78
2023-02-22T03:09:27.620Z,8.74
2023-02-22T03:12:15.160Z,8.68
2023-02-22T03:15:14.116Z,8.68
2023-02-22T03:17:59.938Z,8.60
2023-02-22T03:20:35.929Z,8.46
2023-02-22T03:23:12.093Z,8.39
2023-02-22T03:25:43.731Z,8.39
2023-02-22T03:28:11.894Z,8.43
2023-02-22T03:30:42.816Z,8.47
2023-02-22T03:33:28.018Z,8.41
2023-02-22T03:35:57.111Z,8.46
2023-02-22T03:38:26.925Z,8.32
2023-02-22T03:40:54.576Z,8.23
2023-02-22T03:43:28.064Z,8.27
2023-02-22T03:45:54.908Z,8.20
2023-02-22T03:48:36.854Z,8.14
2023-02-22T03:51:04.536Z,8.19
2023-02-22T03:53:32.943Z,8.21
2023-02-22T03:56:00.348Z,8.19
2023-02-22T03:58:30.955Z,8.15
2023-02-22T04:00:57.604Z,8.05
2023-02-22T04:03:24.060Z,7.97
2023-02-22T04:05:50.699Z,7.87
2023-02-22T04:08:17.360Z,7.75
2023-02-22T04:10:43.886Z,7.64
2023-02-22T04:13:10.715Z,7.53
2023-02-22T04:15:37.365Z,7.48
2023-02-22T04:18:04.093Z,7.41
2023-02-22T04:20:31.693Z,7.39
2023-02-22T04:22:58.178Z,7.36
2023-02-22T04:25:24.718Z,7.39
2023-02-22T04:27:51.208Z,7.43
2023-02-22T04:30:19.236Z,7.47
2023-02-22T04:32:46.163Z,7.48
2023-02-22T04:35:12.732Z,7.50
2023-02-22T04:37:39.254Z,7.55
2023-02-22T04:40:09.124Z,7.61
2023-02-22T04:42:36.137Z,7.66
2023-02-22T04:45:04.090Z,7.62
2023-02-22T04:47:30.616Z,7.67
2023-02-22T04:49:57.210Z,7.76
2023-02-22T04:52:23.750Z,7.83
2023-02-22T04:54:50.836Z,7.87
2023-02-22T04:57:17.253Z,7.96
2023-02-22T04:59:44.308Z,8.01
2023-02-22T05:02:10.857Z,7.98
2023-02-22T05:04:40.546Z,8.00
2023-02-22T05:07:07.056Z,8.00
2023-02-22T05:09:34.200Z,7.99
2023-02-22T05:12:00.678Z,7.96
2023-02-22T05:14:27.606Z,8.00
2023-02-22T05:16:56.092Z,8.05
2023-02-22T05:19:22.683Z,8.11
2023-02-22T05:21:49.290Z,8.10
2023-02-22T05:24:16.057Z,8.13
2023-02-22T05:26:46.235Z,8.19
2023-02-22T05:29:13.224Z,8.20
2023-02-22T05:31:41.774Z,8.24
2023-02-22T05:34:08.327Z,8.24
2023-02-22T05:36:34.857Z,8.21
2023-02-22T05:39:01.732Z,8.14
2023-02-22T05:41:28.408Z,8.21
2023-02-22T05:43:54.885Z,8.16
2023-02-22T05:46:21.534Z,8.19
2023-02-22T05:48:48.056Z,8.20
2023-02-22T05:51:14.640Z,8.21
2023-02-22T05:53:42.547Z,8.26
2023-02-22T05:56:09.030Z,8.23
2023-02-22T05:58:35.922Z,8.23
2023-02-22T06:01:03.420Z,8.22
2023-02-22T06:03:30.012Z,8.20
2023-02-22T06:05:56.447Z,8.22
2023-02-22T06:08:22.942Z,8.19
2023-02-22T06:10:49.425Z,8.23
2023-02-22T06:13:15.952Z,8.22
2023-02-22T06:15:42.379Z,8.28
2023-02-22T06:18:08.849Z,8.34
2023-02-22T06:20:35.566Z,8.37
2023-02-22T06:23:02.029Z,8.42
2023-02-22T06:25:32.973Z,8.40
2023-02-22T06:28:00.768Z,8.44
2023-02-22T06:30:28.136Z,8.44
2023-02-22T06:32:54.655Z,8.41
2023-02-22T06:35:21.765Z,8.44
2023-02-22T06:37:48.352Z,8.43
2023-02-22T06:40:15.782Z,8.46
2023-02-22T06:42:42.345Z,8.47
2023-02-22T06:45:09.530Z,8.51
2023-02-22T06:47:40.954Z,8.53
2023-02-22T06:50:10.293Z,8.55
2023-02-22T06:52:42.528Z,8.47
2023-02-22T06:55:08.966Z,8.42
2023-02-22T06:57:35.478Z,8.60
2023-02-22T07:00:02.047Z,8.47
2023-02-22T07:02:28.579Z,8.62
2023-02-22T07:04:54.996Z,8.71
2023-02-22T07:07:23.424Z,8.76
2023-02-22T07:09:49.842Z,8.73
2023-02-22T07:12:16.316Z,8.74
2023-02-22T07:14:42.906Z,8.75
2023-02-22T07:17:09.434Z,8.85
2023-02-22T07:19:35.975Z,8.94
2023-02-22T07:22:02.452Z,9.07
2023-02-22T07:24:28.905Z,8.96
2023-02-22T07:26:55.674Z,8.94
2023-02-22T07:29:25.353Z,9.11
2023-02-22T07:31:51.918Z,9.26
2023-02-22T07:34:18.572Z,9.13
2023-02-22T07:36:45.252Z,9.34
2023-02-22T07:39:11.733Z,9.41
2023-02-22T07:41:38.297Z,9.46
2023-02-22T07:44:05.018Z,9.63
2023-02-22T07:46:32.026Z,9.65
2023-02-22T07:48:58.554Z,9.83
2023-02-22T07:51:25.203Z,9.76
2023-02-22T07:53:51.754Z,9.85
2023-02-22T07:56:18.271Z,9.85
2023-02-22T07:58:45.337Z,9.85
2023-02-22T08:01:11.874Z,9.81
2023-02-22T08:03:38.585Z,9.77
2023-02-22T08:06:07.022Z,9.83
2023-02-22T08:08:34.438Z,9.96
2023-02-22T08:11:01.013Z,10.14
2023-02-22T08:13:28.200Z,10.09
2023-02-22T08:15:55.072Z,10.02
2023-02-22T08:18:23.041Z,9.96
2023-02-22T08:20:52.035Z,10.21
2023-02-22T08:23:20.219Z,10.27
2023-02-22T08:25:46.756Z,10.18
2023-02-22T08:28:15.907Z,10.37
2023-02-22T08:30:43.794Z,10.44
2023-02-22T08:33:14.308Z,10.33
2023-02-22T08:35:41.388Z,10.39
2023-02-22T08:38:14.735Z,10.56
2023-02-22T08:40:41.208Z,10.72
2023-02-22T08:43:07.659Z,10.83
2023-02-22T08:45:34.151Z,10.55
2023-02-22T08:48:00.660Z,10.71
2023-02-22T08:50:29.779Z,10.38
2023-02-22T08:53:01.480Z,10.48
2023-02-22T08:55:32.072Z,10.82
2023-02-22T08:58:01.207Z,11.06
2023-02-22T09:00:29.535Z,10.70
2023-02-22T09:02:56.126Z,10.96
2023-02-22T09:05:22.630Z,11.32
2023-02-22T09:07:49.187Z,11.51
2023-02-22T09:10:19.971Z,11.68
2023-02-22T09:12:46.442Z,11.88
2023-02-22T09:15:12.928Z,12.14
2023-02-22T09:17:39.675Z,12.18
2023-02-22T09:20:07.587Z,11.80
2023-02-22T09:22:34.418Z,11.75
2023-02-22T09:25:11.223Z,11.96
2023-02-22T09:27:43.500Z,12.20
2023-02-22T09:30:31.940Z,12.11
2023-02-22T09:33:05.487Z,12.33
2023-02-22T09:35:35.990Z,12.16
2023-02-22T09:38:04.489Z,12.40
2023-02-22T09:40:33.076Z,12.12
2023-02-22T09:43:37.898Z,12.14
2023-02-22T09:46:20.213Z,12.36
2023-02-22T09:49:05.186Z,12.22
2023-02-22T09:51:41.207Z,12.40
2023-02-22T09:54:17.547Z,12.70
2023-02-22T09:56:46.865Z,12.41
2023-02-22T09:59:18.743Z,12.43
2023-02-22T10:01:48.855Z,12.75
2023-02-22T10:04:34.451Z,12.78
2023-02-22T10:07:05.898Z,13.23
2023-02-22T10:09:37.622Z,13.31
2023-02-22T10:12:25.527Z,12.61
2023-02-22T10:15:08.153Z,13.06
2023-02-22T10:17:47.549Z,14.63
2023-02-22T10:20:31.994Z,15.23
2023-02-22T10:23:14.144Z,15.87
2023-02-22T10:25:42.210Z,15.96
2023-02-22T10:28:25.067Z,16.01
2023-02-22T10:30:56.673Z,16.18
2023-02-22T10:33:51.168Z,14.21
2023-02-22T10:36:22.859Z,14.66
2023-02-22T10:38:55.513Z,14.44
2023-02-22T10:41:33.446Z,14.13
2023-02-22T10:44:01.773Z,13.94
2023-02-22T10:46:30.702Z,13.50
2023-02-22T10:49:02.747Z,13.98
2023-02-22T10:51:29.337Z,14.16
2023-02-22T10:54:27.076Z,14.23
2023-02-22T10:56:55.742Z,14.46
2023-02-22T10:59:32.744Z,13.81
2023-02-22T11:02:00.910Z,13.60
2023-02-22T11:04:27.866Z,13.38
2023-02-22T11:07:21.926Z,13.34
2023-02-22T11:09:54.544Z,13.54
2023-02-22T11:12:28.701Z,13.79
2023-02-22T11:14:56.174Z,13.57
2023-02-22T11:17:30.270Z,13.51
2023-02-22T11:19:57.485Z,13.81
2023-02-22T11:22:37.827Z,13.71
2023-02-22T11:25:07.483Z,13.67
2023-02-22T11:27:43.909Z,13.57
2023-02-22T11:30:22.145Z,13.43
2023-02-22T11:33:00.949Z,13.46
2023-02-22T11:35:58.241Z,13.44
2023-02-22T11:38:28.695Z,13.85
2023-02-22T11:41:15.169Z,13.96
2023-02-22T11:43:47.424Z,13.79
2023-02-22T11:46:18.307Z,13.73
2023-02-22T11:48:59.726Z,13.66
2023-02-22T11:51:39.125Z,13.90
2023-02-22T11:54:19.336Z,13.97
2023-02-22T11:56:48.799Z,13.93
2023-02-22T11:59:38.792Z,13.55
2023-02-22T12:02:21.667Z,13.10
2023-02-22T12:05:12.264Z,13.11
2023-02-22T12:07:48.594Z,13.23
2023-02-22T12:10:29.356Z,13.23
2023-02-22T12:13:20.737Z,13.50
2023-02-22T12:16:11.801Z,13.83
2023-02-22T12:19:16.261Z,13.42
2023-02-22T12:21:45.156Z,13.54
2023-02-22T12:24:16.384Z,13.74
2023-02-22T12:26:53.775Z,13.49
2023-02-22T12:29:27.013Z,13.86
2023-02-22T12:32:05.761Z,13.95
2023-02-22T12:34:43.222Z,13.97
2023-02-22T12:37:29.316Z,14.15
2023-02-22T12:40:17.031Z,13.83
2023-02-22T12:42:43.443Z,13.98
2023-02-22T12:45:20.607Z,13.84
2023-02-22T12:47:55.744Z,13.69
2023-02-22T12:50:26.314Z,13.64
2023-02-22T12:53:13.398Z,13.87
2023-02-22T12:55:47.979Z,13.86
2023-02-22T12:58:23.086Z,13.77
2023-02-22T13:01:02.012Z,14.01
2023-02-22T13:03:40.063Z,13.94
2023-02-22T13:06:36.675Z,14.02
2023-02-22T13:09:26.583Z,13.69
2023-02-22T13:12:20.388Z,13.41
2023-02-22T13:15:04.920Z,13.20
2023-02-22T13:17:49.991Z,13.61
2023-02-22T13:20:26.771Z,13.38
2023-02-22T13:23:08.695Z,13.41
2023-02-22T13:25:57.958Z,13.22
2023-02-22T13:28:33.672Z,13.66
2023-02-22T13:31:36.798Z,13.82
2023-02-22T13:34:13.841Z,13.49
2023-02-22T13:36:58.133Z,13.71
2023-02-22T13:39:54.629Z,13.86
2023-02-22T13:42:36.447Z,14.06
2023-02-22T13:45:21.342Z,14.18
2023-02-22T13:48:06.032Z,14.06
2023-02-22T13:50:39.381Z,13.74
2023-02-22T13:53:12.635Z,13.75
2023-02-22T13:55:41.453Z,13.48
2023-02-22T13:58:10.717Z,13.38
2023-02-22T14:00:42.176Z,13.35
2023-02-22T14:03:14.812Z,13.36
2023-02-22T14:05:41.599Z,13.52
2023-02-22T14:08:28.878Z,13.59
2023-02-22T14:11:02.209Z,13.54
2023-02-22T14:13:31.101Z,13.55
2023-02-22T14:16:00.713Z,13.52
2023-02-22T14:18:43.112Z,13.33
2023-02-22T14:21:14.369Z,13.36
2023-02-22T14:23:41.732Z,13.30
2023-02-22T14:26:13.918Z,13.39
2023-02-22T14:28:54.333Z,13.24
2023-02-22T14:31:37.288Z,13.26
2023-02-22T14:34:07.384Z,13.29
2023-02-22T14:36:56.221Z,12.82
2023-02-22T14:39:33.146Z,12.74
2023-02-22T14:42:17.084Z,12.96
2023-02-22T14:44:53.473Z,12.80
2023-02-22T14:47:28.220Z,12.87
2023-02-22T14:50:02.238Z,12.98
2023-02-22T14:52:30.968Z,12.97
2023-02-22T14:55:16.081Z,12.73
2023-02-22T14:57:59.152Z,12.52
2023-02-22T15:00:32.705Z,12.55
2023-02-22T15:03:00.622Z,12.46
2023-02-22T15:05:30.989Z,12.09
2023-02-22T15:08:00.653Z,12.34
2023-02-22T15:10:48.271Z,12.33
2023-02-22T15:13:14.709Z,12.38
2023-02-22T15:15:49.181Z,12.32
2023-02-22T15:18:23.520Z,12.08
2023-02-22T15:20:56.057Z,12.09
2023-02-22T15:23:26.225Z,11.89
2023-02-22T15:25:52.776Z,11.94
2023-02-22T15:28:19.535Z,11.78
2023-02-22T15:30:46.193Z,11.87
2023-02-22T15:33:24.198Z,11.68
2023-02-22T15:35:57.711Z,11.78
2023-02-22T15:38:29.309Z,11.71
2023-02-22T15:41:02.614Z,11.54
2023-02-22T15:43:29.947Z,11.50
2023-02-22T15:45:58.543Z,11.48
2023-02-22T15:48:28.677Z,11.37
2023-02-22T15:51:09.184Z,11.21
2023-02-22T15:53:44.352Z,10.97
2023-02-22T15:56:15.039Z,10.92
2023-02-22T15:58:42.350Z,10.92
2023-02-22T16:01:12.422Z,10.90
2023-02-22T16:03:47.255Z,10.84
2023-02-22T16:06:36.419Z,10.71
2023-02-22T16:09:18.182Z,10.72
2023-02-22T16:11:46.238Z,10.64
2023-02-22T16:14:27.264Z,10.55
2023-02-22T16:17:15.642Z,10.38
2023-02-22T16:19:44.953Z,10.32
2023-02-22T16:22:41.211Z,10.28
2023-02-22T16:25:21.501Z,10.24
2023-02-22T16:27:49.105Z,10.08
2023-02-22T16:30:24.962Z,10.09
2023-02-22T16:32:54.085Z,9.98
2023-02-22T16:35:20.631Z,9.86
2023-02-22T16:37:50.006Z,9.79
2023-02-22T16:40:27.496Z,9.73
2023-02-22T16:42:54.264Z,9.70
2023-02-22T16:45:21.723Z,9.62
2023-02-22T16:47:51.607Z,9.63
2023-02-22T16:50:18.105Z,9.58
2023-02-22T16:52:44.598Z,9.53
2023-02-22T16:55:13.391Z,9.55
2023-02-22T16:57:42.251Z,9.48
2023-02-22T17:00:16.612Z,9.41
2023-02-22T17:02:44.926Z,9.38
2023-02-22T17:05:15.715Z,9.33
2023-02-22T17:07:42.505Z,9.30
2023-02-22T17:10:15.828Z,9.28
2023-02-22T17:12:45.158Z,9.24
2023-02-22T17:15:24.693Z,9.24
2023-02-22T17:17:52.411Z,9.18
2023-02-22T17:20:29.882Z,9.14
2023-02-22T17:22:58.133Z,9.13
2023-02-22T17:25:46.686Z,9.10
2023-02-22T17:28:13.209Z,9.07
2023-02-22T17:30:39.912Z,9.01
2023-02-22T17:33:07.929Z,8.96
2023-02-22T17:35:37.247Z,9.03
2023-02-22T17:38:08.153Z,9.03
2023-02-22T17:40:36.330Z,9.10
2023-02-22T17:43:03.513Z,9.09
2023-02-22T17:45:30.208Z,9.06
2023-02-22T17:47:59.005Z,9.05
2023-02-22T17:50:27.146Z,9.02
2023-02-22T17:52:54.167Z,9.00
2023-02-22T17:55:21.366Z,8.94
2023-02-22T17:57:58.269Z,8.96
2023-02-22T18:00:33.596Z,8.92
2023-02-22T18:03:03.059Z,9.01
2023-02-22T18:05:30.452Z,8.90
2023-02-22T18:07:56.916Z,8.88
2023-02-22T18:10:23.429Z,8.87
2023-02-22T18:12:50.176Z,8.91
2023-02-22T18:15:19.462Z,8.83
2023-02-22T18:17:46.744Z,8.89
2023-02-22T18:20:14.555Z,8.89
2023-02-22T18:22:43.340Z,8.86
2023-02-22T18:25:14.742Z,8.87
2023-02-22T18:27:43.290Z,8.91
2023-02-22T18:30:12.024Z,8.84
2023-02-22T18:32:39.246Z,8.76
2023-02-22T18:35:06.549Z,8.82
2023-02-22T18:37:33.570Z,8.84
2023-02-22T18:40:01.422Z,8.78
2023-02-22T18:42:28.367Z,8.73
2023-02-22T18:45:00.594Z,8.70
2023-02-22T18:47:27.518Z,8.73
2023-02-22T18:49:54.195Z,8.62
2023-02-22T18:52:21.056Z,8.66
2023-02-22T18:54:48.824Z,8.63
2023-02-22T18:57:16.144Z,8.57
2023-02-22T18:59:43.320Z,8.61
2023-02-22T19:02:13.974Z,8.64
2023-02-22T19:04:40.869Z,8.57
2023-02-22T19:07:07.325Z,8.57
2023-02-22T19:09:33.816Z,8.55
2023-02-22T19:12:00.263Z,8.55
2023-02-22T19:14:26.854Z,8.50
2023-02-22T19:16:56.504Z,8.46
2023-02-22T19:19:26.110Z,8.37
2023-02-22T19:21:56.277Z,8.36
2023-02-22T19:24:23.102Z,8.19
2023-02-22T19:26:57.185Z,8.24
2023-02-22T19:29:23.844Z,8.11
2023-02-22T19:31:51.617Z,8.01
2023-02-22T19:34:21.826Z,7.86
2023-02-22T19:36:48.865Z,7.80
2023-02-22T19:39:18.897Z,7.84
2023-02-22T19:41:46.759Z,7.88
2023-02-22T19:44:13.542Z,7.81
2023-02-22T19:46:40.270Z,7.64
2023-02-22T19:49:07.621Z,7.56
2023-02-22T19:51:34.450Z,7.37
2023-02-22T19:54:06.229Z,7.31
2023-02-22T19:56:35.208Z,7.23
2023-02-22T19:59:09.471Z,7.20
2023-02-22T20:01:36.805Z,7.06
2023-02-22T20:04:06.348Z,7.04
2023-02-22T20:06:41.949Z,7.00
2023-02-22T20:09:11.468Z,7.01
2023-02-22T20:11:38.277Z,7.07
2023-02-22T20:14:08.125Z,6.96
2023-02-22T20:16:35.223Z,6.86
2023-02-22T20:19:01.827Z,6.84
2023-02-22T20:21:33.175Z,6.78
2023-02-22T20:24:06.732Z,6.66
2023-02-22T20:26:35.316Z,6.55
2023-02-22T20:29:04.015Z,6.58
2023-02-22T20:31:31.589Z,6.55
2023-02-22T20:34:00.091Z,6.53
2023-02-22T20:36:28.261Z,6.40
2023-02-22T20:38:57.620Z,6.44
2023-02-22T20:41:28.848Z,6.48
2023-02-22T20:43:56.254Z,6.51
2023-02-22T20:46:24.006Z,6.46
2023-02-22T20:48:55.337Z,6.41
2023-02-22T20:51:21.911Z,6.33
2023-02-22T20:53:48.894Z,6.25
2023-02-22T20:56:18.003Z,6.19
2023-02-22T20:58:44.581Z,6.12
2023-02-22T21:01:12.686Z,6.13
2023-02-22T21:03:40.734Z,6.13
2023-02-22T21:06:07.744Z,6.08
2023-02-22T21:08:34.175Z,6.06
2023-02-22T21:11:01.056Z,6.08
2023-02-22T21:13:27.632Z,6.14
2023-02-22T21:15:54.168Z,6.07
2023-02-22T21:18:22.516Z,6.05
2023-02-22T21:20:49.832Z,5.97
2023-02-22T21:23:16.419Z,5.97
2023-02-22T21:25:53.086Z,5.92
2023-02-22T21:28:19.994Z,5.89
2023-02-22T21:30:47.356Z,5.88
2023-02-22T21:33:17.240Z,5.87
2023-02-22T21:35:46.925Z,5.90
2023-02-22T21:38:14.499Z,5.89
2023-02-22T21:40:41.736Z,5.95
2023-02-22T21:43:10.588Z,5.87
2023-02-22T21:45:37.704Z,5.92
2023-02-22T21:48:04.891Z,5.93
2023-02-22T21:50:31.862Z,5.95
2023-02-22T21:52:59.052Z,5.96
2023-02-22T21:55:26.457Z,5.94
2023-02-22T21:57:52.997Z,5.90
2023-02-22T22:00:29.312Z,5.93
2023-02-22T22:03:14.636Z,5.87
2023-02-22T22:05:45.164Z,5.84
2023-02-22T22:08:19.562Z,5.83
2023-02-22T22:10:51.233Z,5.76
2023-02-22T22:13:17.812Z,5.81
2023-02-22T22:15:44.250Z,5.84
2023-02-22T22:18:11.661Z,5.82
2023-02-22T22:20:38.904Z,5.82
2023-02-22T22:23:06.836Z,5.82
2023-02-22T22:25:38.038Z,5.67
2023-02-22T22:28:07.529Z,5.80
2023-02-22T22:30:38.010Z,5.70
2023-02-22T22:33:05.627Z,5.72
2023-02-22T22:35:33.486Z,5.74
2023-02-22T22:38:00.944Z,5.69
2023-02-22T22:40:28.013Z,5.66
2023-02-22T22:42:54.503Z,5.62
2023-02-22T22:45:21.093Z,5.49
2023-02-22T22:47:48.264Z,5.49
2023-02-22T22:50:18.734Z,5.43
2023-02-22T22:52:46.063Z,5.41
2023-02-22T22:55:12.562Z,5.39
2023-02-22T22:57:39.912Z,5.43
2023-02-22T23:00:30.308Z,5.39
2023-02-22T23:02:57.259Z,5.37
2023-02-22T23:05:28.246Z,5.31
2023-02-22T23:07:56.320Z,5.28
2023-02-22T23:10:27.088Z,5.26
2023-02-22T23:12:56.156Z,5.26
2023-02-22T23:15:24.625Z,5.23
2023-02-22T23:17:56.009Z,5.20
2023-02-22T23:20:26.158Z,5.22
2023-02-22T23:22:54.187Z,5.22
2023-02-22T23:25:21.587Z,5.20
2023-02-22T23:27:49.385Z,5.20
2023-02-22T23:30:18.635Z,5.20
2023-02-22T23:32:46.644Z,5.21
2023-02-22T23:35:14.930Z,5.21
2023-02-22T23:37:42.345Z,5.20
2023-02-22T23:40:17.333Z,5.20
2023-02-22T23:42:54.623Z,5.17
2023-02-22T23:45:24.610Z,5.13
2023-02-22T23:47:56.406Z,5.10
2023-02-22T23:50:28.986Z,5.09
2023-02-22T23:52:58.063Z,5.09
2023-02-22T23:55:31.395Z,5.11
2023-02-22T23:57:59.442Z,5.02
